createdAt,value
2019-04-07T00:00:09.638Z,8.30
2019-04-07T00:02:38.583Z,8.10
2019-04-07T00:05:12.525Z,8.00
2019-04-07T00:07:37.891Z,7.90
2019-04-07T00:10:08.575Z,7.80
2019-04-07T00:12:37.018Z,7.80
2019-04-07T00:15:06.209Z,7.70
2019-04-07T00:17:34.619Z,7.80
2019-04-07T00:20:03.179Z,8.00
2019-04-07T00:22:31.623Z,8.00
2019-04-07T00:25:00.604Z,8.10
2019-04-07T00:27:29.110Z,8.20
2019-04-07T00:29:57.917Z,8.20
2019-04-07T00:32:26.419Z,8.00
2019-04-07T00:34:55.274Z,7.70
2019-04-07T00:37:23.822Z,7.40
2019-04-07T00:39:52.351Z,7.40
2019-04-07T00:42:20.761Z,7.50
2019-04-07T00:44:49.611Z,7.70
2019-04-07T00:47:18.568Z,7.70
2019-04-07T00:49:47.547Z,7.80
2019-04-07T00:52:17.552Z,7.80
2019-04-07T00:54:45.958Z,7.80
2019-04-07T00:57:14.827Z,7.80
2019-04-07T00:59:43.282Z,7.70
2019-04-07T01:02:12.276Z,7.60
2019-04-07T01:04:40.715Z,7.30
2019-04-07T01:07:09.182Z,7.30
2019-04-07T01:09:40.363Z,7.40
2019-04-07T01:12:10.799Z,7.50
2019-04-07T01:14:39.271Z,7.50
2019-04-07T01:17:08.254Z,7.40
2019-04-07T01:19:36.652Z,7.50
2019-04-07T01:22:05.441Z,7.60
2019-04-07T01:24:34.142Z,7.60
2019-04-07T01:27:02.867Z,7.60
2019-04-07T01:29:31.307Z,7.60
2019-04-07T01:31:59.719Z,7.60
2019-04-07T01:34:28.208Z,7.70
2019-04-07T01:36:58.301Z,7.50
2019-04-07T01:39:27.300Z,7.40
2019-04-07T01:41:57.443Z,7.50
2019-04-07T01:44:30.093Z,7.50
2019-04-07T01:47:00.127Z,7.60
2019-04-07T01:49:39.185Z,7.50
2019-04-07T01:52:14.947Z,7.30
2019-04-07T01:54:44.980Z,7.20
2019-04-07T01:57:20.955Z,7.20
2019-04-07T01:59:59.554Z,7.10
2019-04-07T02:02:29.623Z,6.90
2019-04-07T02:05:06.659Z,6.70
2019-04-07T02:07:40.079Z,6.70
2019-04-07T02:10:22.397Z,6.80
2019-04-07T02:13:02.061Z,6.90
2019-04-07T02:15:34.894Z,7.00
2019-04-07T02:18:11.376Z,6.80
2019-04-07T02:21:03.405Z,6.70
2019-04-07T02:23:37.128Z,6.80
2019-04-07T02:26:16.400Z,6.60
2019-04-07T02:28:49.569Z,6.40
2019-04-07T02:31:27.767Z,6.40
2019-04-07T02:34:07.126Z,6.30
2019-04-07T02:36:46.592Z,6.40
2019-04-07T02:39:17.396Z,6.50
2019-04-07T02:41:51.750Z,6.30
2019-04-07T02:44:38.976Z,6.30
2019-04-07T02:47:09.848Z,6.50
2019-04-07T02:49:42.718Z,6.40
2019-04-07T02:52:16.410Z,6.40
2019-04-07T02:54:46.792Z,6.50
2019-04-07T02:57:22.714Z,6.50
2019-04-07T02:59:55.875Z,6.70
2019-04-07T03:02:29.195Z,6.60
2019-04-07T03:04:59.953Z,6.60
2019-04-07T03:07:32.890Z,6.70
2019-04-07T03:10:15.920Z,6.70
2019-04-07T03:13:02.867Z,6.70
2019-04-07T03:15:33.061Z,6.60
2019-04-07T03:18:10.189Z,6.50
2019-04-07T03:20:56.575Z,6.30
2019-04-07T03:23:29.024Z,6.20
2019-04-07T03:26:05.069Z,6.20
2019-04-07T03:28:47.504Z,6.20
2019-04-07T03:31:27.320Z,6.10
2019-04-07T03:34:03.066Z,6.10
2019-04-07T03:37:09.424Z,6.30
2019-04-07T03:39:19.172Z,6.30
2019-04-07T03:41:49.488Z,6.40
2019-04-07T03:44:22.612Z,6.30
2019-04-07T03:47:01.514Z,6.20
2019-04-07T03:49:41.266Z,6.30
2019-04-07T03:52:17.269Z,6.30
2019-04-07T03:54:50.849Z,6.30
2019-04-07T03:57:21.547Z,6.30
2019-04-07T03:59:55.494Z,6.30
2019-04-07T04:02:41.045Z,6.20
2019-04-07T04:05:24.262Z,6.20
2019-04-07T04:07:54.628Z,5.90
2019-04-07T04:10:24.739Z,5.80
2019-04-07T04:13:13.167Z,5.80
2019-04-07T04:15:49.311Z,5.80
2019-04-07T04:18:18.515Z,6.00
2019-04-07T04:20:46.878Z,5.90
2019-04-07T04:23:15.260Z,5.70
2019-04-07T04:25:43.658Z,5.60
2019-04-07T04:28:31.671Z,5.70
2019-04-07T04:31:00.044Z,5.80
2019-04-07T04:33:28.416Z,5.90
2019-04-07T04:35:56.819Z,6.00
2019-04-07T04:38:25.201Z,5.90
2019-04-07T04:40:53.593Z,5.80
2019-04-07T04:43:21.982Z,5.90
2019-04-07T04:45:50.563Z,6.00
2019-04-07T04:48:19.732Z,6.10
2019-04-07T04:50:49.160Z,6.20
2019-04-07T04:53:18.460Z,6.30
2019-04-07T04:55:47.697Z,6.30
2019-04-07T04:58:17.308Z,6.40
2019-04-07T05:00:46.644Z,6.40
2019-04-07T05:03:16.004Z,6.50
2019-04-07T05:05:44.708Z,6.60
2019-04-07T05:08:13.600Z,6.30
2019-04-07T05:10:45.662Z,6.30
2019-04-07T05:13:15.961Z,6.50
2019-04-07T05:15:46.837Z,6.40
2019-04-07T05:18:16.544Z,6.40
2019-04-07T05:20:45.618Z,6.50
2019-04-07T05:23:14.246Z,6.60
2019-04-07T05:25:43.781Z,6.70
2019-04-07T05:28:14.560Z,6.70
2019-04-07T05:30:43.553Z,6.80
2019-04-07T05:33:14.122Z,6.90
2019-04-07T05:35:42.924Z,6.90
2019-04-07T05:38:11.633Z,6.90
2019-04-07T05:40:40.125Z,6.80
2019-04-07T05:43:08.685Z,6.80
2019-04-07T05:45:37.671Z,6.80
2019-04-07T05:48:06.494Z,6.90
2019-04-07T05:50:34.965Z,6.90
2019-04-07T05:53:04.235Z,6.90
2019-04-07T05:55:33.427Z,6.90
2019-04-07T05:58:05.195Z,6.90
2019-04-07T06:00:32.317Z,6.90
2019-04-07T06:03:04.532Z,6.90
2019-04-07T06:05:31.865Z,7.10
2019-04-07T06:08:06.274Z,7.20
2019-04-07T06:10:30.602Z,7.40
2019-04-07T06:12:59.562Z,7.70
2019-04-07T06:15:28.142Z,7.80
2019-04-07T06:18:01.099Z,8.00
2019-04-07T06:20:26.739Z,8.10
2019-04-07T06:22:55.210Z,8.90
2019-04-07T06:25:23.707Z,10.10
2019-04-07T06:27:52.331Z,10.90
2019-04-07T06:30:22.070Z,11.10
2019-04-07T06:32:54.712Z,10.90
2019-04-07T06:35:22.550Z,10.80
2019-04-07T06:37:51.951Z,10.60
2019-04-07T06:40:21.960Z,10.50
2019-04-07T06:42:50.886Z,10.60
2019-04-07T06:45:36.119Z,10.60
2019-04-07T06:48:09.356Z,10.50
2019-04-07T06:50:50.257Z,10.30
2019-04-07T06:53:19.736Z,10.20
2019-04-07T06:56:07.480Z,10.20
2019-04-07T06:58:41.746Z,10.10
2019-04-07T07:01:25.153Z,10.10
2019-04-07T07:04:11.092Z,10.20
2019-04-07T07:06:49.319Z,10.20
2019-04-07T07:09:25.693Z,10.30
2019-04-07T07:11:57.244Z,10.40
2019-04-07T07:14:40.656Z,10.50
2019-04-07T07:17:18.562Z,10.70
2019-04-07T07:19:50.844Z,10.70
2019-04-07T07:22:36.300Z,10.90
2019-04-07T07:25:05.255Z,11.00
2019-04-07T07:27:33.871Z,11.00
2019-04-07T07:30:02.632Z,11.10
2019-04-07T07:32:35.558Z,11.30
2019-04-07T07:35:01.826Z,11.50
2019-04-07T07:37:31.702Z,11.60
2019-04-07T07:40:00.954Z,11.80
2019-04-07T07:42:30.504Z,12.00
2019-04-07T07:44:59.110Z,12.30
2019-04-07T07:47:29.630Z,12.50
2019-04-07T07:49:58.641Z,12.80
2019-04-07T07:52:30.906Z,12.90
2019-04-07T07:55:00.804Z,13.20
2019-04-07T07:57:30.493Z,13.60
2019-04-07T07:59:59.732Z,14.00
2019-04-07T08:02:33.389Z,14.30
2019-04-07T08:05:01.988Z,14.80
2019-04-07T08:07:31.104Z,15.10
2019-04-07T08:09:59.733Z,15.40
2019-04-07T08:12:34.706Z,15.80
2019-04-07T08:14:58.893Z,16.10
2019-04-07T08:17:27.723Z,16.20
2019-04-07T08:19:56.734Z,16.40
2019-04-07T08:22:32.040Z,16.40
2019-04-07T08:24:59.251Z,16.40
2019-04-07T08:27:31.018Z,16.40
2019-04-07T08:29:59.118Z,16.60
2019-04-07T08:32:30.826Z,16.80
2019-04-07T08:35:01.464Z,16.80
2019-04-07T08:37:33.168Z,16.60
2019-04-07T08:40:04.294Z,16.60
2019-04-07T08:42:31.465Z,16.70
2019-04-07T08:45:00.710Z,16.80
2019-04-07T08:47:30.204Z,16.90
2019-04-07T08:49:58.762Z,17.00
2019-04-07T08:52:27.226Z,17.00
2019-04-07T08:54:55.663Z,17.20
2019-04-07T08:57:27.205Z,16.90
2019-04-07T08:59:55.146Z,17.00
2019-04-07T09:02:26.038Z,17.30
2019-04-07T09:04:55.877Z,17.40
2019-04-07T09:07:24.958Z,17.60
2019-04-07T09:09:53.410Z,17.80
2019-04-07T09:12:21.869Z,18.00
2019-04-07T09:14:50.385Z,18.20
2019-04-07T09:17:43.246Z,18.30
2019-04-07T09:20:15.171Z,18.50
2019-04-07T09:22:56.659Z,18.50
2019-04-07T09:25:37.870Z,18.50
2019-04-07T09:28:10.065Z,18.50
2019-04-07T09:30:49.335Z,18.60
2019-04-07T09:33:28.662Z,18.50
2019-04-07T09:36:03.583Z,18.40
2019-04-07T09:38:50.237Z,18.30
2019-04-07T09:41:37.464Z,18.20
2019-04-07T09:44:11.444Z,18.10
2019-04-07T09:46:57.580Z,17.90
2019-04-07T09:49:36.906Z,17.80
2019-04-07T09:52:25.233Z,17.70
2019-04-07T09:54:58.640Z,17.50
2019-04-07T09:57:30.312Z,17.40
2019-04-07T10:00:07.581Z,17.40
2019-04-07T10:02:56.238Z,17.40
2019-04-07T10:05:42.840Z,17.40
2019-04-07T10:08:31.615Z,17.40
2019-04-07T10:11:01.771Z,17.50
2019-04-07T10:13:44.130Z,17.50
2019-04-07T10:16:17.527Z,17.60
2019-04-07T10:19:03.889Z,17.70
2019-04-07T10:21:51.680Z,17.80
2019-04-07T10:24:24.627Z,18.00
2019-04-07T10:27:03.246Z,17.90
2019-04-07T10:29:50.297Z,17.90
2019-04-07T10:32:32.500Z,17.80
2019-04-07T10:35:02.586Z,17.80
2019-04-07T10:37:38.941Z,17.90
2019-04-07T10:40:18.223Z,18.10
2019-04-07T10:42:41.257Z,18.40
2019-04-07T10:45:16.322Z,18.70
2019-04-07T10:47:46.403Z,19.00
2019-04-07T10:50:19.975Z,19.40
2019-04-07T10:53:04.898Z,19.80
2019-04-07T10:55:49.943Z,19.60
2019-04-07T10:58:26.508Z,19.30
2019-04-07T11:00:59.741Z,19.30
2019-04-07T11:03:46.437Z,19.40
2019-04-07T11:06:30.570Z,19.50
2019-04-07T11:09:00.630Z,19.50
2019-04-07T11:11:31.469Z,19.50
2019-04-07T11:14:18.498Z,19.30
2019-04-07T11:17:06.410Z,19.30
2019-04-07T11:19:43.342Z,19.20
2019-04-07T11:22:29.774Z,19.00
2019-04-07T11:24:59.847Z,18.90
2019-04-07T11:27:46.797Z,18.80
2019-04-07T11:30:17.001Z,18.70
2019-04-07T11:32:47.814Z,18.50
2019-04-07T11:35:18.034Z,18.50
2019-04-07T11:37:57.199Z,18.50
2019-04-07T11:40:43.164Z,18.70
2019-04-07T11:43:05.440Z,18.70
2019-04-07T11:45:53.350Z,18.70
2019-04-07T11:48:13.358Z,18.60
2019-04-07T11:50:55.260Z,18.60
2019-04-07T11:53:25.981Z,19.00
2019-04-07T11:55:58.956Z,19.10
2019-04-07T11:58:44.070Z,19.00
2019-04-07T12:01:26.890Z,19.00
2019-04-07T12:04:03.047Z,18.70
2019-04-07T12:06:39.640Z,18.70
2019-04-07T12:09:13.085Z,18.70
2019-04-07T12:11:59.552Z,18.70
2019-04-07T12:14:50.037Z,18.70
2019-04-07T12:17:33.962Z,18.50
2019-04-07T12:20:05.341Z,18.40
2019-04-07T12:22:46.878Z,18.40
2019-04-07T12:25:16.990Z,18.50
2019-04-07T12:28:02.217Z,18.60
2019-04-07T12:30:32.715Z,18.90
2019-04-07T12:33:12.235Z,18.90
2019-04-07T12:35:55.467Z,19.00
2019-04-07T12:38:44.711Z,19.10
2019-04-07T12:41:23.414Z,19.20
2019-04-07T12:43:56.511Z,19.20
2019-04-07T12:46:42.993Z,19.20
2019-04-07T12:49:29.883Z,19.10
2019-04-07T12:52:12.813Z,19.20
2019-04-07T12:54:46.015Z,19.40
2019-04-07T12:57:16.898Z,19.60
2019-04-07T12:59:48.718Z,19.70
2019-04-07T13:02:20.012Z,19.80
2019-04-07T13:05:05.087Z,19.80
2019-04-07T13:07:42.915Z,19.70
2019-04-07T13:10:13.063Z,19.70
2019-04-07T13:12:49.707Z,19.70
2019-04-07T13:15:36.706Z,19.80
2019-04-07T13:18:25.419Z,19.90
2019-04-07T13:20:55.498Z,20.00
2019-04-07T13:23:28.727Z,20.00
2019-04-07T13:26:16.483Z,20.00
2019-04-07T13:28:46.487Z,19.90
2019-04-07T13:31:28.745Z,19.70
2019-04-07T13:34:04.722Z,19.50
2019-04-07T13:36:51.082Z,19.40
2019-04-07T13:39:26.030Z,19.30
2019-04-07T13:42:02.225Z,19.20
2019-04-07T13:44:45.726Z,19.20
2019-04-07T13:47:18.891Z,19.10
2019-04-07T13:50:00.686Z,19.00
2019-04-07T13:52:35.391Z,18.90
2019-04-07T13:55:19.502Z,18.80
2019-04-07T13:57:55.614Z,18.70
2019-04-07T14:00:24.108Z,18.60
2019-04-07T14:02:54.989Z,18.50
2019-04-07T14:05:26.307Z,18.40
2019-04-07T14:08:00.377Z,18.30
2019-04-07T14:10:33.344Z,18.20
2019-04-07T14:13:19.782Z,18.00
2019-04-07T14:16:05.145Z,17.90
2019-04-07T14:18:52.343Z,17.80
2019-04-07T14:21:21.789Z,17.70
2019-04-07T14:24:08.187Z,17.60
2019-04-07T14:26:43.413Z,17.50
2019-04-07T14:29:16.980Z,17.40
2019-04-07T14:31:50.227Z,17.40
2019-04-07T14:34:29.276Z,17.30
2019-04-07T14:37:03.221Z,17.30
2019-04-07T14:39:37.121Z,17.30
2019-04-07T14:42:08.701Z,17.30
2019-04-07T14:44:53.359Z,17.40
2019-04-07T14:47:39.348Z,17.40
2019-04-07T14:50:26.399Z,17.40
2019-04-07T14:53:03.182Z,17.40
2019-04-07T14:55:36.784Z,17.40
2019-04-07T14:58:13.462Z,17.40
2019-04-07T15:00:41.767Z,17.30
2019-04-07T15:03:15.946Z,17.30
2019-04-07T15:05:55.271Z,17.30
2019-04-07T15:08:23.691Z,17.20
2019-04-07T15:10:53.768Z,17.10
2019-04-07T15:13:28.173Z,17.10
2019-04-07T15:15:57.170Z,17.10
2019-04-07T15:18:28.699Z,17.10
2019-04-07T15:20:57.314Z,17.10
2019-04-07T15:23:29.468Z,17.10
2019-04-07T15:25:59.041Z,17.10
2019-04-07T15:28:30.648Z,17.20
2019-04-07T15:30:57.613Z,17.10
2019-04-07T15:33:26.041Z,17.20
2019-04-07T15:35:54.575Z,17.20
2019-04-07T15:38:26.853Z,17.20
2019-04-07T15:40:53.021Z,17.20
2019-04-07T15:43:22.284Z,17.20
2019-04-07T15:45:50.793Z,17.30
2019-04-07T15:48:21.155Z,17.30
2019-04-07T15:50:56.279Z,17.40
2019-04-07T15:53:25.568Z,17.30
2019-04-07T15:56:01.989Z,17.30
2019-04-07T15:58:26.766Z,17.30
2019-04-07T16:00:54.843Z,17.30
2019-04-07T16:03:23.234Z,17.30
2019-04-07T16:05:52.317Z,17.20
2019-04-07T16:08:20.943Z,17.20
2019-04-07T16:10:49.336Z,17.10
2019-04-07T16:13:18.436Z,17.10
2019-04-07T16:15:50.871Z,17.10
2019-04-07T16:18:17.033Z,17.00
2019-04-07T16:20:45.460Z,17.00
2019-04-07T16:23:17.433Z,16.90
2019-04-07T16:25:44.335Z,16.80
2019-04-07T16:28:14.443Z,16.80
2019-04-07T16:30:42.873Z,16.80
2019-04-07T16:33:11.238Z,16.80
2019-04-07T16:35:39.822Z,16.80
2019-04-07T16:38:08.411Z,16.70
2019-04-07T16:40:40.429Z,16.70
2019-04-07T16:43:13.128Z,16.70
2019-04-07T16:45:36.876Z,16.70
2019-04-07T16:48:06.702Z,16.60
2019-04-07T16:50:35.306Z,16.60
2019-04-07T16:53:06.535Z,16.50
2019-04-07T16:55:39.912Z,16.50
2019-04-07T16:58:09.507Z,16.50
2019-04-07T17:00:38.397Z,16.40
2019-04-07T17:03:08.062Z,16.40
2019-04-07T17:05:37.276Z,16.40
2019-04-07T17:08:05.935Z,16.30
2019-04-07T17:10:35.366Z,16.30
2019-04-07T17:13:15.250Z,16.30
2019-04-07T17:15:37.441Z,16.30
2019-04-07T17:18:07.582Z,16.20
2019-04-07T17:20:37.760Z,16.20
2019-04-07T17:23:07.109Z,16.10
2019-04-07T17:25:35.906Z,16.10
2019-04-07T17:28:06.027Z,16.10
2019-04-07T17:30:35.411Z,16.10
2019-04-07T17:33:05.216Z,16.10
2019-04-07T17:35:35.535Z,16.10
2019-04-07T17:38:06.805Z,16.00
2019-04-07T17:40:37.658Z,16.00
2019-04-07T17:43:10.805Z,16.00
2019-04-07T17:45:40.801Z,15.90
2019-04-07T17:48:13.724Z,15.90
2019-04-07T17:51:04.562Z,15.90
2019-04-07T17:53:38.147Z,15.90
2019-04-07T17:56:29.836Z,15.90
2019-04-07T17:59:14.177Z,15.80
2019-04-07T18:02:00.402Z,15.80
2019-04-07T18:04:36.420Z,15.80
2019-04-07T18:07:23.350Z,15.80
2019-04-07T18:10:11.590Z,15.70
2019-04-07T18:12:49.812Z,15.70
2019-04-07T18:15:19.193Z,15.60
2019-04-07T18:17:56.090Z,15.50
2019-04-07T18:20:26.363Z,15.40
2019-04-07T18:22:58.911Z,15.40
2019-04-07T18:25:32.116Z,15.40
2019-04-07T18:28:06.723Z,15.30
2019-04-07T18:30:36.990Z,15.20
2019-04-07T18:33:07.077Z,15.20
2019-04-07T18:35:40.758Z,15.20
2019-04-07T18:38:12.233Z,15.10
2019-04-07T18:40:58.339Z,15.10
2019-04-07T18:43:29.034Z,15.10
2019-04-07T18:46:01.878Z,15.10
2019-04-07T18:48:41.128Z,15.10
2019-04-07T18:51:27.336Z,15.00
2019-04-07T18:54:13.801Z,15.10
2019-04-07T18:56:49.593Z,15.10
2019-04-07T18:59:20.210Z,15.10
2019-04-07T19:01:52.921Z,15.10
2019-04-07T19:04:25.955Z,15.00
2019-04-07T19:06:57.954Z,15.10
2019-04-07T19:09:34.334Z,15.00
2019-04-07T19:12:10.919Z,15.00
2019-04-07T19:14:44.504Z,15.00
2019-04-07T19:17:17.158Z,14.90
2019-04-07T19:19:59.326Z,15.10
2019-04-07T19:22:28.945Z,15.00
2019-04-07T19:25:17.272Z,15.00
2019-04-07T19:27:48.249Z,15.00
2019-04-07T19:30:21.136Z,15.00
2019-04-07T19:33:03.463Z,15.00
2019-04-07T19:35:45.648Z,15.00
2019-04-07T19:38:27.461Z,14.90
2019-04-07T19:41:03.456Z,14.90
2019-04-07T19:43:33.489Z,14.90
2019-04-07T19:46:20.260Z,14.80
2019-04-07T19:48:50.292Z,14.70
2019-04-07T19:51:36.862Z,14.70
2019-04-07T19:54:18.033Z,14.70
2019-04-07T19:57:00.519Z,14.60
2019-04-07T19:59:30.668Z,14.50
2019-04-07T20:02:07.465Z,14.40
2019-04-07T20:04:53.691Z,14.40
2019-04-07T20:07:30.536Z,14.50
2019-04-07T20:10:01.313Z,14.40
2019-04-07T20:12:47.724Z,14.40
2019-04-07T20:15:39.064Z,14.30
2019-04-07T20:18:07.064Z,14.30
2019-04-07T20:20:38.485Z,14.30
2019-04-07T20:23:09.332Z,14.20
2019-04-07T20:25:46.203Z,14.20
2019-04-07T20:28:13.732Z,14.20
2019-04-07T20:33:34.079Z,14.20
2019-04-07T20:36:14.823Z,14.20
2019-04-07T20:39:00.441Z,14.20
2019-04-07T20:41:36.442Z,14.20
2019-04-07T20:44:25.850Z,14.10
2019-04-07T20:47:08.573Z,14.00
2019-04-07T20:49:41.160Z,14.00
2019-04-07T20:52:15.336Z,13.90
2019-04-07T20:54:57.481Z,13.90
2019-04-07T20:57:43.555Z,13.80
2019-04-07T21:00:22.898Z,13.90
2019-04-07T21:03:15.299Z,13.90
2019-04-07T21:05:39.255Z,13.90
2019-04-07T21:08:30.203Z,13.90
2019-04-07T21:10:59.100Z,13.90
2019-04-07T21:13:47.179Z,13.90
2019-04-07T21:16:25.905Z,13.90
2019-04-07T21:19:06.854Z,13.80
2019-04-07T21:21:35.763Z,13.80
2019-04-07T21:24:05.840Z,13.90
2019-04-07T21:26:35.985Z,13.80
2019-04-07T21:29:18.148Z,13.80
2019-04-07T21:32:03.493Z,13.90
2019-04-07T21:34:37.021Z,13.90
2019-04-07T21:37:15.843Z,13.80
2019-04-07T21:39:50.609Z,13.80
2019-04-07T21:42:30.758Z,13.70
2019-04-07T21:45:04.400Z,13.60
2019-04-07T21:47:36.528Z,13.70
2019-04-07T21:50:15.566Z,13.70
2019-04-07T21:52:45.655Z,13.70
2019-04-07T21:55:19.045Z,13.70
2019-04-07T21:58:01.139Z,13.70
2019-04-07T22:00:43.371Z,13.70
2019-04-07T22:03:15.773Z,13.70
2019-04-07T22:05:48.943Z,13.70
2019-04-07T22:08:19.973Z,13.70
2019-04-07T22:10:51.421Z,13.60
2019-04-07T22:13:19.545Z,13.70
2019-04-07T22:15:54.459Z,13.60
2019-04-07T22:18:18.026Z,13.50
2019-04-07T22:20:47.890Z,13.50
2019-04-07T22:23:16.682Z,13.40
2019-04-07T22:25:49.076Z,13.50
2019-04-07T22:28:18.406Z,13.50
2019-04-07T22:30:48.717Z,13.50
2019-04-07T22:33:17.933Z,13.40
2019-04-07T22:35:46.398Z,13.40
2019-04-07T22:38:15.055Z,13.40
2019-04-07T22:40:43.658Z,13.40
2019-04-07T22:43:12.039Z,13.30
2019-04-07T22:45:40.424Z,13.20
2019-04-07T22:48:09.925Z,13.20
2019-04-07T22:50:38.911Z,13.20
2019-04-07T22:53:08.155Z,13.10
2019-04-07T22:55:36.527Z,13.20
2019-04-07T22:58:05.453Z,13.20
2019-04-07T23:00:33.912Z,13.20
2019-04-07T23:03:02.311Z,13.30
2019-04-07T23:05:30.679Z,13.30
2019-04-07T23:07:59.907Z,13.10
2019-04-07T23:10:28.338Z,13.10
2019-04-07T23:12:57.281Z,13.20
2019-04-07T23:15:37.446Z,13.20
2019-04-07T23:17:55.678Z,13.20
2019-04-07T23:20:24.036Z,13.20
2019-04-07T23:22:52.409Z,13.30
2019-04-07T23:25:23.002Z,13.20
2019-04-07T23:27:50.819Z,13.20
2019-04-07T23:30:21.483Z,13.20
2019-04-07T23:32:50.029Z,13.20
2019-04-07T23:35:18.357Z,13.20
2019-04-07T23:37:46.747Z,13.20
2019-04-07T23:40:15.120Z,13.20
2019-04-07T23:42:43.516Z,13.20
2019-04-07T23:45:12.341Z,13.10
2019-04-07T23:47:40.826Z,13.10
2019-04-07T23:50:09.241Z,13.10
2019-04-07T23:52:37.592Z,13.00
2019-04-07T23:55:06.471Z,13.00
2019-04-07T23:57:34.941Z,13.00
